Time;durP1;ratioP1;P1;durP2;ratioP2;P2;SDS_P1;SDS_P2;PMS_P1;PMS_P2;Temp;Humidity;BMP_temperature;BMP_pressure;BME280_temperature;BME280_humidity;BME280_pressure;Samples;Min_cycle;Max_cycle;Signal;HPM_P1;HPM_P2
2021/10/17 00:02:44;;;;;;;39.27;19.32;;;;;;;5.74;100.00;99651.63;4262505;82;28519;-82
2021/10/17 00:08:48;;;;;;;42.38;19.80;;;;;;;5.74;100.00;99656.96;4300039;81;28481;-82
2021/10/17 00:14:49;;;;;;;43.15;20.97;;;;;;;5.83;100.00;99650.49;4298530;81;28456;-82
2021/10/17 00:20:51;;;;;;;41.00;21.25;;;;;;;5.67;100.00;99659.02;4364677;81;28864;-83
2021/10/17 00:26:52;;;;;;;40.35;19.67;;;;;;;5.68;100.00;99649.19;4303006;81;28550;-82
2021/10/17 00:32:55;;;;;;;40.00;19.17;;;;;;;5.53;100.00;99659.85;4381990;81;28496;-82
2021/10/17 00:38:56;;;;;;;40.60;19.25;;;;;;;5.54;100.00;99650.31;4429923;78;28505;-81
2021/10/17 00:45:00;;;;;;;41.60;21.20;;;;;;;5.56;100.00;99648.28;4379576;80;28565;-82
2021/10/17 00:51:02;;;;;;;48.10;21.82;;;;;;;5.53;100.00;99644.66;4336680;81;28505;-83
2021/10/17 00:57:06;;;;;;;40.83;20.88;;;;;;;5.33;100.00;99652.87;4359237;81;28569;-82
2021/10/17 01:03:07;;;;;;;43.95;19.98;;;;;;;5.42;100.00;99651.28;4365886;81;28493;-82
2021/10/17 01:09:09;;;;;;;35.55;18.85;;;;;;;5.35;100.00;99648.17;4346388;81;28476;-82
2021/10/17 01:15:11;;;;;;;40.98;18.60;;;;;;;5.35;100.00;99645.50;4355104;81;28515;-83
2021/10/17 01:21:14;;;;;;;39.13;19.17;;;;;;;5.28;100.00;99642.74;4395680;81;28483;-82
2021/10/17 01:27:16;;;;;;;41.65;19.57;;;;;;;5.33;100.00;99643.53;4332077;81;28508;-83
2021/10/17 01:33:18;;;;;;;40.60;20.32;;;;;;;5.27;100.00;99646.42;4370067;81;28468;-81
2021/10/17 01:39:22;;;;;;;42.05;18.73;;;;;;;5.25;100.00;99635.11;4363046;81;28532;-82
2021/10/17 01:45:23;;;;;;;41.95;18.52;;;;;;;5.21;100.00;99635.17;4350966;79;28595;-81
2021/10/17 01:51:25;;;;;;;38.83;17.45;;;;;;;5.31;100.00;99643.73;4363001;81;28458;-82
2021/10/17 01:57:27;;;;;;;40.48;19.15;;;;;;;5.40;100.00;99643.95;4365463;81;28455;-81
2021/10/17 02:03:28;;;;;;;43.68;21.33;;;;;;;5.35;100.00;99642.34;4344877;81;28449;-81
2021/10/17 02:09:30;;;;;;;42.35;20.23;;;;;;;5.28;100.00;99634.74;4336363;81;28467;-80
2021/10/17 02:15:32;;;;;;;37.75;18.80;;;;;;;5.27;100.00;99633.94;4324371;81;28445;-81
2021/10/17 02:21:33;;;;;;;37.63;18.82;;;;;;;5.34;100.00;99628.70;4349545;79;28522;-83
2021/10/17 02:27:35;;;;;;;34.73;17.23;;;;;;;5.29;100.00;99632.40;4395118;79;28498;-82
2021/10/17 02:33:39;;;;;;;30.30;16.77;;;;;;;5.32;100.00;99632.05;4370760;79;28543;-83
2021/10/17 02:39:42;;;;;;;42.33;18.77;;;;;;;5.35;100.00;99621.02;4364361;81;28455;-83
2021/10/17 02:45:43;;;;;;;35.80;19.07;;;;;;;5.28;100.00;99616.08;4331228;81;28481;-83
2021/10/17 02:51:45;;;;;;;36.53;18.75;;;;;;;5.11;100.00;99602.93;4270126;82;28486;-82
2021/10/17 02:57:46;;;;;;;36.00;16.85;;;;;;;5.05;100.00;99614.80;4351019;81;28458;-81
2021/10/17 03:03:48;;;;;;;30.25;15.72;;;;;;;4.91;100.00;99605.78;4353056;81;28496;-82
2021/10/17 03:09:49;;;;;;;28.77;15.63;;;;;;;4.87;100.00;99606.64;4336244;81;28454;-81
2021/10/17 03:15:51;;;;;;;34.08;17.40;;;;;;;4.79;100.00;99608.03;4396616;81;28459;-81
2021/10/17 03:21:54;;;;;;;30.77;16.35;;;;;;;4.78;100.00;99606.38;4367367;81;28520;-82
2021/10/17 03:27:56;;;;;;;32.42;16.40;;;;;;;4.63;100.00;99611.66;4382709;81;28547;-82
2021/10/17 03:34:00;;;;;;;30.27;15.35;;;;;;;4.49;100.00;99606.11;4321448;81;28443;-82
2021/10/17 03:40:02;;;;;;;30.12;15.15;;;;;;;4.36;100.00;99599.18;4356627;81;28492;-81
2021/10/17 03:46:06;;;;;;;29.80;14.70;;;;;;;4.09;100.00;99596.84;4386948;81;28445;-80
2021/10/17 03:52:08;;;;;;;31.42;15.28;;;;;;;4.11;100.00;99593.50;4364447;81;28490;-81
2021/10/17 03:58:10;;;;;;;35.28;16.05;;;;;;;3.93;100.00;99595.62;4422332;80;28454;-81
2021/10/17 04:04:11;;;;;;;31.40;15.95;;;;;;;3.95;100.00;99595.75;4335767;81;28445;-81
2021/10/17 04:10:13;;;;;;;28.30;14.60;;;;;;;3.72;100.00;99599.18;4360434;81;28460;-81
2021/10/17 04:16:14;;;;;;;24.65;13.60;;;;;;;3.68;100.00;99597.87;4353189;81;28471;-81
2021/10/17 04:22:16;;;;;;;29.18;14.00;;;;;;;3.58;100.00;99604.71;4336699;81;28567;-81
2021/10/17 04:28:18;;;;;;;26.25;13.22;;;;;;;3.54;100.00;99597.25;4333169;81;28447;-80
2021/10/17 04:34:19;;;;;;;31.68;14.30;;;;;;;3.49;100.00;99589.30;4367428;81;28458;-81
2021/10/17 04:40:23;;;;;;;36.10;16.32;;;;;;;3.42;100.00;99599.47;4337285;81;28490;-80
2021/10/17 04:46:33;;;;;;;26.35;13.40;;;;;;;3.47;100.00;99604.59;4347405;81;28446;-82
2021/10/17 04:52:34;;;;;;;26.57;13.15;;;;;;;3.36;100.00;99599.65;4324133;81;28448;-80
2021/10/17 04:58:37;;;;;;;29.10;13.18;;;;;;;3.28;100.00;99600.50;4321784;82;28448;-81
2021/10/17 05:04:39;;;;;;;26.93;14.50;;;;;;;3.28;100.00;99601.83;4339969;82;28475;-80
2021/10/17 05:10:41;;;;;;;28.77;13.90;;;;;;;3.27;100.00;99605.46;4341457;82;28468;-81
2021/10/17 05:16:43;;;;;;;32.15;14.13;;;;;;;3.26;100.00;99613.63;4289300;82;28495;-81
2021/10/17 05:22:44;;;;;;;27.37;12.60;;;;;;;3.31;100.00;99625.89;4314359;82;28486;-81
2021/10/17 05:28:45;;;;;;;25.32;12.60;;;;;;;3.28;100.00;99635.05;4336686;80;28457;-81
2021/10/17 05:34:47;;;;;;;24.12;11.68;;;;;;;3.45;100.00;99637.17;4331942;80;28531;-84
2021/10/17 05:40:49;;;;;;;25.70;13.35;;;;;;;3.68;100.00;99638.26;4353512;81;28476;-80
2021/10/17 05:46:50;;;;;;;30.08;13.93;;;;;;;3.84;100.00;99648.86;4339748;81;28463;-81
2021/10/17 05:52:51;;;;;;;29.63;13.93;;;;;;;3.86;100.00;99652.16;4368549;81;28479;-81
2021/10/17 05:58:53;;;;;;;22.50;11.73;;;;;;;4.08;100.00;99655.06;4429971;80;28491;-81
2021/10/17 06:04:55;;;;;;;20.15;10.30;;;;;;;4.27;100.00;99658.31;4413749;80;28497;-82
2021/10/17 06:10:58;;;;;;;19.25;9.75;;;;;;;4.59;100.00;99653.80;4322773;81;28583;-82
2021/10/17 06:16:59;;;;;;;18.00;9.85;;;;;;;4.64;100.00;99659.44;4347459;81;28464;-84
2021/10/17 06:23:01;;;;;;;19.87;9.60;;;;;;;4.91;100.00;99661.73;4341696;80;28533;-82
2021/10/17 06:29:03;;;;;;;20.35;9.88;;;;;;;5.22;100.00;99666.96;4333354;82;28446;-82
2021/10/17 06:35:06;;;;;;;18.25;9.00;;;;;;;5.40;100.00;99663.14;4344876;82;28494;-79
2021/10/17 06:41:08;;;;;;;17.67;8.93;;;;;;;5.65;100.00;99666.88;4310755;81;28464;-80
2021/10/17 06:47:09;;;;;;;21.55;10.60;;;;;;;5.93;100.00;99663.05;4340516;81;28459;-82
2021/10/17 06:53:11;;;;;;;20.45;10.32;;;;;;;6.02;100.00;99663.83;4329143;82;28461;-84
2021/10/17 06:59:14;;;;;;;18.45;9.68;;;;;;;6.22;100.00;99676.60;4337037;82;28457;-84
2021/10/17 07:05:15;;;;;;;20.35;9.68;;;;;;;6.48;100.00;99676.58;4343316;80;28710;-82
2021/10/17 07:11:17;;;;;;;19.15;9.28;;;;;;;6.57;100.00;99671.97;4340146;81;28518;-90
2021/10/17 07:17:30;;;;;;;21.33;10.00;;;;;;;6.86;100.00;99671.52;4328654;81;28463;-86
2021/10/17 07:23:34;;;;;;;20.37;9.85;;;;;;;7.08;100.00;99677.19;4361146;81;28470;-86
2021/10/17 07:29:36;;;;;;;29.95;12.88;;;;;;;7.35;100.00;99676.05;4419239;78;28517;-83
2021/10/17 07:35:38;;;;;;;24.43;11.97;;;;;;;7.54;100.00;99681.75;4436533;78;28551;-85
2021/10/17 07:41:45;;;;;;;25.65;13.05;;;;;;;7.68;100.00;99678.66;4360685;80;28476;-86
2021/10/17 07:47:44;;;;;;;25.88;11.73;;;;;;;7.99;100.00;99683.24;4435569;80;28519;-86
2021/10/17 07:53:46;;;;;;;18.15;9.68;;;;;;;7.99;100.00;99692.12;4421639;78;28527;-89
2021/10/17 07:59:48;;;;;;;25.80;10.80;;;;;;;8.04;100.00;99686.17;4397636;79;28509;-85
2021/10/17 08:05:52;;;;;;;22.30;10.93;;;;;;;8.27;100.00;99682.34;4372509;80;28561;-85
2021/10/17 08:11:53;;;;;;;23.05;11.50;;;;;;;8.08;100.00;99680.22;4373368;80;28520;-84
2021/10/17 08:17:55;;;;;;;15.72;8.10;;;;;;;8.46;100.00;99683.44;4370181;80;28497;-85
2021/10/17 08:24:08;;;;;;;15.18;7.12;;;;;;;8.63;100.00;99678.06;4369480;80;28474;-85
2021/10/17 09:57:45;;;;;;;3.65;2.00;;;;;;;9.98;69.05;99661.91;3325148;102;28586;-83
2021/10/17 10:03:47;;;;;;;5.08;3.05;;;;;;;10.27;61.39;99661.08;3305687;103;28602;-77
2021/10/17 10:09:50;;;;;;;5.80;2.67;;;;;;;10.79;66.84;99648.61;3418356;101;28534;-80
2021/10/17 10:15:52;;;;;;;4.05;2.02;;;;;;;11.04;63.59;99645.11;3604930;97;28531;-81
2021/10/17 10:21:55;;;;;;;4.03;1.80;;;;;;;10.97;60.05;99647.34;3706554;90;28551;-81
2021/10/17 10:27:59;;;;;;;5.83;2.60;;;;;;;11.19;56.17;99646.12;4261202;82;28558;-81
2021/10/17 10:34:00;;;;;;;3.92;2.15;;;;;;;11.27;59.47;99648.55;4293529;82;28548;-81
2021/10/17 10:40:10;;;;;;;6.10;2.60;;;;;;;11.24;58.37;99648.45;4278937;82;28570;-81
2021/10/17 10:46:11;;;;;;;6.37;2.37;;;;;;;11.04;57.87;99643.25;4281026;83;28481;-81
2021/10/17 10:52:30;;;;;;;4.72;2.55;;;;;;;10.86;57.96;99635.41;4427212;80;28464;-81
2021/10/17 10:58:36;;;;;;;5.72;3.25;;;;;;;10.44;59.00;99637.24;4367773;81;28441;-81
2021/10/17 11:04:46;;;;;;;9.48;3.08;;;;;;;10.74;63.10;99628.58;4373275;81;28488;-81
2021/10/17 11:10:50;;;;;;;6.75;3.10;;;;;;;10.91;61.81;99623.99;4390799;81;28494;-82
2021/10/17 11:16:51;;;;;;;6.78;2.85;;;;;;;10.86;61.34;99622.50;4374654;81;28548;-82
2021/10/17 11:22:57;;;;;;;6.53;3.30;;;;;;;10.88;60.79;99619.06;4401545;81;28500;-82
2021/10/17 11:28:59;;;;;;;6.30;3.10;;;;;;;10.77;61.13;99615.73;4384864;81;28482;-81
2021/10/17 11:35:05;;;;;;;5.97;2.72;;;;;;;11.21;61.68;99609.07;4355703;81;28556;-82
2021/10/17 11:41:10;;;;;;;6.47;2.80;;;;;;;11.35;61.66;99609.73;4449188;80;28462;-80
2021/10/17 11:47:11;;;;;;;7.33;3.17;;;;;;;11.25;58.45;99600.84;4370619;79;28501;-81
2021/10/17 11:53:17;;;;;;;4.80;2.75;;;;;;;11.36;59.84;99589.87;4407571;80;28551;-80
2021/10/17 11:59:22;;;;;;;4.12;2.50;;;;;;;11.55;61.01;99586.67;4430803;80;28462;-83
2021/10/17 12:05:26;;;;;;;5.87;2.50;;;;;;;11.45;59.69;99568.32;4398464;80;28496;-82
2021/10/17 12:11:30;;;;;;;4.75;2.55;;;;;;;11.54;60.35;99566.98;4362466;81;28502;-79
2021/10/17 12:17:40;;;;;;;5.78;2.67;;;;;;;11.59;60.95;99554.19;4334969;81;28488;-84
2021/10/17 12:23:45;;;;;;;5.20;2.50;;;;;;;11.65;60.26;99545.22;4367789;81;28453;-80
2021/10/17 12:29:51;;;;;;;8.23;2.83;;;;;;;11.42;59.40;99550.77;4342829;81;28476;-81
2021/10/17 12:35:52;;;;;;;4.78;2.50;;;;;;;11.78;59.72;99538.85;4331510;81;28435;-81
2021/10/17 12:41:59;;;;;;;6.78;3.10;;;;;;;11.70;57.42;99546.70;4339368;81;28467;-82
2021/10/17 12:48:00;;;;;;;5.47;3.10;;;;;;;11.78;58.03;99536.67;4328604;81;28694;-81
2021/10/17 12:54:18;;;;;;;6.10;2.95;;;;;;;11.74;57.62;99538.19;4349850;82;28492;-82
2021/10/17 13:00:20;;;;;;;6.58;2.85;;;;;;;11.75;56.11;99527.70;4313396;82;28528;-84
2021/10/17 13:06:24;;;;;;;6.87;3.17;;;;;;;11.74;57.98;99534.95;4341532;82;28508;-82
2021/10/17 13:12:33;;;;;;;5.47;3.30;;;;;;;11.70;56.70;99534.58;4310383;82;28456;-82
2021/10/17 13:18:34;;;;;;;6.20;2.90;;;;;;;11.90;58.56;99539.43;4373493;81;28549;-82
2021/10/17 13:24:36;;;;;;;7.12;3.17;;;;;;;11.76;57.98;99534.73;4373193;81;28555;-80
2021/10/17 13:30:38;;;;;;;5.55;2.98;;;;;;;11.78;58.29;99532.62;4316637;82;28499;-80
2021/10/17 13:36:39;;;;;;;6.53;3.40;;;;;;;11.65;58.58;99526.88;4374045;81;28460;-81
2021/10/17 13:42:42;;;;;;;5.53;3.40;;;;;;;11.53;58.90;99522.80;4312785;82;28484;-81
2021/10/17 13:48:44;;;;;;;6.22;3.20;;;;;;;11.41;56.40;99521.36;4391497;79;28506;-81
2021/10/17 13:54:52;;;;;;;8.23;3.20;;;;;;;11.47;57.79;99511.56;4331028;81;28518;-83
2021/10/17 14:00:54;;;;;;;6.47;3.47;;;;;;;11.23;58.32;99512.77;4367120;81;28524;-81
2021/10/17 14:06:56;;;;;;;7.45;3.50;;;;;;;11.10;61.31;99499.77;4297249;81;28531;-82
2021/10/17 14:12:57;;;;;;;7.87;3.70;;;;;;;10.98;61.47;99508.25;4290058;81;28510;-81
2021/10/17 14:18:58;;;;;;;5.87;4.00;;;;;;;10.90;61.56;99506.67;4304145;81;28472;-81
2021/10/17 14:25:00;;;;;;;7.72;3.92;;;;;;;10.95;63.55;99508.70;4360176;81;28476;-82
2021/10/17 14:31:02;;;;;;;8.65;3.92;;;;;;;10.74;63.33;99506.21;4358654;81;28475;-81
2021/10/17 14:37:03;;;;;;;7.55;3.98;;;;;;;10.70;64.65;99501.48;4364157;81;28460;-80
2021/10/17 14:43:05;;;;;;;6.85;3.95;;;;;;;10.67;65.25;99517.53;4309340;81;28478;-80
2021/10/17 14:49:06;;;;;;;9.93;4.80;;;;;;;10.67;66.92;99511.32;4270092;81;28506;-82
2021/10/17 14:55:10;;;;;;;9.80;4.55;;;;;;;10.48;67.52;99508.60;4334070;81;28504;-82
2021/10/17 15:01:11;;;;;;;7.60;3.80;;;;;;;10.38;67.22;99518.98;4353733;82;28550;-85
2021/10/17 15:07:12;;;;;;;9.68;4.62;;;;;;;10.16;68.92;99521.48;4330513;81;28482;-81
2021/10/17 15:13:14;;;;;;;8.38;4.05;;;;;;;10.05;70.20;99523.52;4380629;81;28495;-81
2021/10/17 15:19:16;;;;;;;8.78;4.37;;;;;;;9.89;70.77;99535.09;4382796;81;28503;-81
2021/10/17 15:25:18;;;;;;;7.78;4.17;;;;;;;9.84;72.94;99533.55;4357182;81;28550;-82
2021/10/17 15:31:20;;;;;;;8.00;4.65;;;;;;;9.61;74.12;99530.03;4359508;79;28464;-88
2021/10/17 15:37:22;;;;;;;6.65;4.05;;;;;;;9.34;81.56;99542.21;4357717;80;28507;-84
2021/10/17 15:43:24;;;;;;;11.40;4.67;;;;;;;9.26;79.61;99548.61;4403021;79;28562;-84
2021/10/17 15:49:26;;;;;;;12.03;5.12;;;;;;;8.88;100.00;99550.64;4470663;79;28481;-80
2021/10/17 15:55:27;;;;;;;11.03;5.03;;;;;;;8.54;100.00;99555.98;4357043;81;28498;-83
2021/10/17 16:01:30;;;;;;;9.40;4.85;;;;;;;8.21;100.00;99566.11;4388230;81;28519;-83
2021/10/17 16:07:32;;;;;;;8.85;4.65;;;;;;;8.06;100.00;99576.98;4377357;81;28483;-84
2021/10/17 16:13:33;;;;;;;6.87;4.92;;;;;;;8.01;100.00;99580.77;4385821;81;28637;-83
2021/10/17 16:19:35;;;;;;;10.58;4.85;;;;;;;8.19;97.64;99582.37;4333636;81;28520;-81
2021/10/17 16:25:38;;;;;;;9.98;4.75;;;;;;;8.23;94.31;99589.00;4357054;81;28579;-81
2021/10/17 16:31:43;;;;;;;10.65;5.22;;;;;;;8.17;100.00;99594.31;4371055;80;28433;-80
2021/10/17 16:37:44;;;;;;;8.03;4.55;;;;;;;7.87;100.00;99593.30;4387017;80;28564;-81
2021/10/17 16:43:47;;;;;;;10.78;4.72;;;;;;;7.71;100.00;99587.25;4360553;80;28442;-81
2021/10/17 16:49:49;;;;;;;8.53;4.87;;;;;;;7.80;100.00;99587.40;4329145;81;28576;-79
2021/10/17 16:55:50;;;;;;;9.15;5.40;;;;;;;7.77;100.00;99593.66;4380422;79;28436;-81
2021/10/17 17:01:52;;;;;;;10.28;4.70;;;;;;;7.94;100.00;99586.95;4356832;79;28595;-81
2021/10/17 17:07:54;;;;;;;9.88;5.08;;;;;;;7.83;100.00;99596.89;4363219;79;28517;-83
2021/10/17 17:13:55;;;;;;;10.25;5.72;;;;;;;7.75;100.00;99588.49;4401947;79;28736;-80
2021/10/17 17:19:56;;;;;;;9.18;4.97;;;;;;;7.71;100.00;99587.78;4366321;79;28446;-85
2021/10/17 17:25:58;;;;;;;8.85;4.47;;;;;;;7.87;100.00;99588.77;4377443;79;28545;-80
2021/10/17 17:31:59;;;;;;;7.53;3.77;;;;;;;7.88;100.00;99584.25;4372978;80;28524;-81
2021/10/17 17:38:02;;;;;;;10.10;4.90;;;;;;;7.89;100.00;99583.22;4374500;79;28499;-86
2021/10/17 17:44:05;;;;;;;18.40;8.10;;;;;;;7.77;100.00;99595.84;4376831;79;28470;-85
2021/10/17 17:50:08;;;;;;;11.80;6.33;;;;;;;7.72;100.00;99598.27;4370879;79;28481;-85
2021/10/17 17:56:09;;;;;;;10.08;5.15;;;;;;;7.60;100.00;99606.05;4388147;79;28495;-83
2021/10/17 18:02:10;;;;;;;8.35;4.83;;;;;;;7.70;100.00;99597.64;4373350;80;28480;-84
2021/10/17 18:08:12;;;;;;;9.03;4.78;;;;;;;7.61;100.00;99592.98;4382752;80;28471;-82
2021/10/17 18:14:14;;;;;;;11.90;5.25;;;;;;;7.56;100.00;99582.55;4371790;79;28529;-81
2021/10/17 18:20:17;;;;;;;10.98;6.42;;;;;;;7.37;100.00;99583.58;4384415;79;28616;-81
2021/10/17 18:26:19;;;;;;;11.95;6.17;;;;;;;7.47;100.00;99586.72;4380575;79;28581;-82
2021/10/17 18:32:20;;;;;;;10.60;4.67;;;;;;;7.62;100.00;99596.47;4380310;80;28474;-84
2021/10/17 18:38:23;;;;;;;16.45;8.58;;;;;;;7.66;100.00;99597.21;4372559;80;28519;-82
2021/10/17 18:44:24;;;;;;;15.13;7.78;;;;;;;7.70;100.00;99601.66;4384927;79;28565;-84
2021/10/17 18:50:26;;;;;;;14.07;7.95;;;;;;;7.68;100.00;99594.34;4359935;80;28481;-82
2021/10/17 18:56:29;;;;;;;20.17;9.95;;;;;;;7.65;100.00;99603.59;4320300;81;28549;-83
2021/10/17 19:02:31;;;;;;;21.82;12.15;;;;;;;7.67;100.00;99603.41;4297629;82;28451;-82
2021/10/17 19:08:33;;;;;;;20.27;10.63;;;;;;;7.62;100.00;99605.83;4321229;82;28472;-83
2021/10/17 19:14:36;;;;;;;22.62;12.10;;;;;;;7.69;100.00;99598.67;4296554;82;28573;-81
2021/10/17 19:20:38;;;;;;;28.10;14.33;;;;;;;7.63;100.00;99603.47;4309735;82;28570;-82
2021/10/17 19:26:40;;;;;;;29.35;15.45;;;;;;;7.62;100.00;99602.66;4308828;82;28537;-82
2021/10/17 19:32:43;;;;;;;30.52;15.63;;;;;;;7.70;100.00;99608.35;4300589;81;28519;-81
2021/10/17 19:38:44;;;;;;;32.55;16.20;;;;;;;7.71;100.00;99612.68;4311209;82;28533;-80
2021/10/17 19:44:45;;;;;;;32.88;17.07;;;;;;;7.74;100.00;99621.64;4301485;82;28533;-82
2021/10/17 19:50:47;;;;;;;31.65;14.70;;;;;;;7.75;100.00;99617.12;4305255;81;28494;-78
2021/10/17 19:56:48;;;;;;;28.02;14.85;;;;;;;7.73;100.00;99632.03;4269440;81;28443;-82
2021/10/17 20:02:51;;;;;;;31.20;15.83;;;;;;;7.81;100.00;99636.42;4284626;81;28514;-81
2021/10/17 20:08:53;;;;;;;30.52;16.73;;;;;;;7.88;100.00;99643.14;4312717;81;28537;-83
2021/10/17 20:14:55;;;;;;;31.05;16.20;;;;;;;7.89;100.00;99640.78;4324648;81;28527;-82
2021/10/17 20:20:57;;;;;;;28.32;14.23;;;;;;;7.83;100.00;99645.08;4271095;83;28488;-82
2021/10/17 20:26:58;;;;;;;31.07;15.75;;;;;;;7.83;100.00;99645.58;4303646;81;28461;-81
2021/10/17 20:33:02;;;;;;;27.13;13.40;;;;;;;7.80;100.00;99642.27;4291515;81;28482;-82
2021/10/17 20:39:18;;;;;;;24.37;12.50;;;;;;;7.76;100.00;99647.72;4285434;81;28460;-84
2021/10/17 20:45:19;;;;;;;28.27;14.40;;;;;;;7.78;100.00;99644.83;4281809;83;28442;-84
2021/10/17 20:51:21;;;;;;;30.90;14.30;;;;;;;7.76;100.00;99643.70;4323125;81;28458;-81
2021/10/17 20:57:23;;;;;;;31.50;15.10;;;;;;;7.75;100.00;99643.89;4363699;79;28615;-81
2021/10/17 21:03:29;;;;;;;30.17;14.98;;;;;;;7.77;100.00;99640.00;4410031;79;28458;-82
2021/10/17 21:09:35;;;;;;;24.82;12.13;;;;;;;7.73;100.00;99648.63;4426079;80;28486;-80
2021/10/17 21:15:36;;;;;;;21.85;12.35;;;;;;;7.73;100.00;99640.06;4424323;79;28454;-82
2021/10/17 21:21:38;;;;;;;26.42;14.00;;;;;;;7.69;100.00;99637.48;4433249;80;28448;-82
2021/10/17 21:27:40;;;;;;;24.90;13.18;;;;;;;7.78;100.00;99638.98;4432809;79;28465;-82
2021/10/17 21:33:43;;;;;;;25.10;13.93;;;;;;;7.76;100.00;99637.02;4414531;79;28504;-81
2021/10/17 21:39:44;;;;;;;23.30;11.93;;;;;;;7.66;100.00;99637.36;4413980;79;28454;-81
2021/10/17 21:45:46;;;;;;;21.05;11.38;;;;;;;7.64;100.00;99635.40;4392103;79;28456;-82
2021/10/17 21:51:49;;;;;;;28.90;13.68;;;;;;;7.65;100.00;99637.55;4431329;78;28520;-83
2021/10/17 21:57:50;;;;;;;28.87;14.55;;;;;;;7.64;100.00;99631.88;4430585;78;28467;-81
2021/10/17 22:03:52;;;;;;;31.00;17.07;;;;;;;7.59;100.00;99638.34;4400356;78;28518;-82
2021/10/17 22:09:54;;;;;;;32.70;15.98;;;;;;;7.64;100.00;99635.40;4423946;78;28502;-81
2021/10/17 22:15:56;;;;;;;26.97;13.65;;;;;;;7.57;100.00;99640.40;4435964;80;28482;-83
2021/10/17 22:21:57;;;;;;;27.85;14.65;;;;;;;7.62;100.00;99636.11;4435509;78;28458;-80
2021/10/17 22:27:59;;;;;;;30.92;15.72;;;;;;;7.66;100.00;99645.39;4417905;78;28448;-81
2021/10/17 22:34:00;;;;;;;31.23;15.30;;;;;;;7.58;100.00;99636.70;4426012;80;28503;-82
2021/10/17 22:40:04;;;;;;;28.95;16.27;;;;;;;7.52;100.00;99640.98;4439494;78;28458;-81
2021/10/17 22:46:05;;;;;;;37.53;19.15;;;;;;;7.41;100.00;99651.70;4438029;79;28425;-81
2021/10/17 22:52:07;;;;;;;36.08;16.75;;;;;;;7.41;100.00;99643.69;4428606;78;28460;-81
2021/10/17 22:58:08;;;;;;;35.35;16.93;;;;;;;7.39;100.00;99643.89;4379066;80;28500;-81
2021/10/17 23:04:10;;;;;;;29.10;15.95;;;;;;;7.24;100.00;99635.97;4354269;80;28470;-81
2021/10/17 23:10:12;;;;;;;26.05;14.10;;;;;;;7.25;100.00;99648.31;4369208;80;28463;-79
2021/10/17 23:16:13;;;;;;;29.35;14.10;;;;;;;7.20;100.00;99651.27;4363920;80;28477;-81
2021/10/17 23:22:15;;;;;;;30.12;15.85;;;;;;;7.13;100.00;99647.70;4362222;81;28482;-81
2021/10/17 23:28:17;;;;;;;31.17;16.42;;;;;;;7.05;100.00;99652.68;4405764;80;28497;-81
2021/10/17 23:34:18;;;;;;;32.67;16.73;;;;;;;6.98;100.00;99662.80;4377787;80;28488;-81
2021/10/17 23:40:19;;;;;;;25.27;14.65;;;;;;;6.78;100.00;99657.28;4417516;80;28432;-80
2021/10/17 23:46:20;;;;;;;33.00;15.88;;;;;;;6.72;100.00;99670.55;4411486;80;28466;-81
2021/10/17 23:52:22;;;;;;;28.87;14.35;;;;;;;6.76;100.00;99669.98;4365265;81;28516;-80
2021/10/17 23:58:23;;;;;;;30.80;16.40;;;;;;;6.67;100.00;99667.14;4374948;81;28452;-82
